Bomont, West Virginia
Current Conditions -  °F | °C
As of 3:54 AM on Saturday 29 Nov 2014 (Local Time) from KCRW Reporting Station
Broken Clouds Broken Clouds  
Wind Chill: 23°   Ceiling: 12000
Heat Index: 28°   Visibility: 8mi
Dew Point: 24°   Wind: 5mph
Humidity: 85%   Direction: 350°N
Pressure: 30.13"   Gusts: NA
Location:  38.45°N, 81.24°W
Report Text: KCRW 290854Z 35004KT 8SM BKN120 M02/M04 A3013 RMK AO2 SLP213 T10221044 58007
Loading
Personal Weather Stations






























Interactive Weather Map New forecast layout! Learn more

10-Day Weather Forecast

Advertisements
Track Severe Weather on mobile